Time;durP1;ratioP1;P1;durP2;ratioP2;P2;SDS_P1;SDS_P2;PMS_P1;PMS_P2;Temp;Humidity;BMP_temperature;BMP_pressure;BME280_temperature;BME280_humidity;BME280_pressure;Samples;Min_cycle;Max_cycle;Signal;HPM_P1;HPM_P2
2023/01/25 00:00:24;;;;;;;0.95;0.90;;;5.70;99.90;;;;;;5091336;28;20203;-78
2023/01/25 00:02:50;;;;;;;1.63;1.52;;;5.70;99.90;;;;;;5092519;28;20274;-77
2023/01/25 00:05:16;;;;;;;0.70;0.70;;;5.70;99.90;;;;;;5091556;28;20196;-77
2023/01/25 00:07:42;;;;;;;0.70;0.70;;;5.80;99.90;;;;;;5091404;28;20246;-77
2023/01/25 00:10:08;;;;;;;0.57;0.57;;;5.80;99.90;;;;;;5091434;28;20275;-76
2023/01/25 00:12:34;;;;;;;0.50;0.50;;;5.80;99.90;;;;;;5091258;28;20204;-76
2023/01/25 00:14:59;;;;;;;0.70;0.70;;;5.80;99.90;;;;;;5091825;28;20750;-77
2023/01/25 00:17:25;;;;;;;0.70;0.70;;;5.90;99.90;;;;;;5091133;28;20257;-77
2023/01/25 00:19:51;;;;;;;0.60;0.60;;;6.00;99.90;;;;;;5071354;28;20690;-77
2023/01/25 00:22:17;;;;;;;0.70;0.70;;;6.00;99.90;;;;;;5072447;28;20181;-78
2023/01/25 00:24:43;;;;;;;0.68;0.68;;;5.90;99.90;;;;;;5071409;28;20189;-78
2023/01/25 00:27:08;;;;;;;0.65;0.65;;;6.00;99.90;;;;;;5071293;28;20204;-77
2023/01/25 00:29:34;;;;;;;0.60;0.60;;;6.00;99.90;;;;;;5072318;28;20272;-76
2023/01/25 00:32:06;;;;;;;0.68;0.68;;;6.00;99.90;;;;;;5072506;28;20204;-77
2023/01/25 00:34:48;;;;;;;16.33;1.45;;;6.00;99.90;;;;;;5070928;28;20559;-78
2023/01/25 00:37:27;;;;;;;0.50;0.50;;;6.00;99.90;;;;;;5072289;28;20689;-77
2023/01/25 00:39:52;;;;;;;0.70;0.70;;;6.00;99.90;;;;;;5071191;28;20558;-77
2023/01/25 00:42:19;;;;;;;0.90;0.90;;;6.00;99.90;;;;;;5070980;28;20193;-78
2023/01/25 00:44:46;;;;;;;0.70;0.70;;;5.90;99.90;;;;;;5086425;28;20200;-77
2023/01/25 00:47:12;;;;;;;0.57;0.57;;;5.90;99.90;;;;;;5091253;28;20192;-77
2023/01/25 00:49:40;;;;;;;0.60;0.60;;;5.90;99.90;;;;;;5091005;28;20231;-77
2023/01/25 00:52:07;;;;;;;0.60;0.60;;;5.90;99.90;;;;;;5091157;28;20228;-77
2023/01/25 00:54:32;;;;;;;0.70;0.70;;;5.90;99.90;;;;;;5093112;28;20223;-77
2023/01/25 00:56:58;;;;;;;0.50;0.50;;;5.80;99.90;;;;;;5094752;28;20667;-76
2023/01/25 00:59:24;;;;;;;0.60;0.60;;;5.80;99.90;;;;;;5094620;28;20198;-77
2023/01/25 01:01:51;;;;;;;0.65;0.65;;;5.70;99.90;;;;;;5094722;28;20214;-77
2023/01/25 01:04:18;;;;;;;0.50;0.50;;;5.80;99.90;;;;;;5094530;28;20603;-79
2023/01/25 01:06:43;;;;;;;0.52;0.52;;;5.80;99.90;;;;;;5094476;28;20204;-76
2023/01/25 01:09:15;;;;;;;0.60;0.60;;;5.80;99.90;;;;;;5096089;28;20202;-77
2023/01/25 01:11:41;;;;;;;0.60;0.60;;;5.80;99.90;;;;;;5094585;28;20196;-77
2023/01/25 01:14:07;;;;;;;0.60;0.60;;;5.80;99.90;;;;;;5094387;28;20688;-77
2023/01/25 01:16:33;;;;;;;0.80;0.80;;;5.80;99.90;;;;;;5094197;28;20211;-77
2023/01/25 01:18:59;;;;;;;0.60;0.60;;;5.80;99.90;;;;;;5091001;28;20678;-77
2023/01/25 01:21:25;;;;;;;0.50;0.50;;;5.80;99.90;;;;;;5073947;28;20189;-77
2023/01/25 01:23:53;;;;;;;0.70;0.70;;;5.80;99.90;;;;;;5091116;28;20600;-77
2023/01/25 01:26:19;;;;;;;0.63;0.63;;;5.90;99.90;;;;;;5090800;28;20243;-77
2023/01/25 01:28:44;;;;;;;0.60;0.60;;;5.90;99.90;;;;;;5090886;28;20633;-77
2023/01/25 01:31:13;;;;;;;0.60;0.60;;;5.90;99.90;;;;;;5075353;28;20192;-77
2023/01/25 01:33:39;;;;;;;0.60;0.60;;;5.90;99.90;;;;;;5090812;28;20747;-77
2023/01/25 01:36:15;;;;;;;0.47;0.47;;;5.80;99.90;;;;;;5090810;28;20307;-77
2023/01/25 01:38:43;;;;;;;0.50;0.50;;;5.90;99.90;;;;;;5090609;28;20655;-77
2023/01/25 01:41:10;;;;;;;0.50;0.50;;;5.90;99.90;;;;;;5091611;28;20216;-76
2023/01/25 01:43:40;;;;;;;0.45;0.45;;;5.90;99.90;;;;;;5095152;28;20188;-77
2023/01/25 01:46:14;;;;;;;0.55;0.55;;;5.80;99.90;;;;;;5093820;28;20199;-76
2023/01/25 01:48:45;;;;;;;0.50;0.50;;;5.80;99.90;;;;;;5093835;28;20199;-77
2023/01/25 01:51:23;;;;;;;0.40;0.40;;;5.80;99.90;;;;;;5093859;28;20196;-77
2023/01/25 01:54:06;;;;;;;0.52;0.52;;;5.80;99.90;;;;;;5093848;28;20203;-76
2023/01/25 01:56:38;;;;;;;0.32;0.32;;;5.80;99.90;;;;;;5093474;28;20203;-77
2023/01/25 01:59:05;;;;;;;0.50;0.50;;;5.90;99.90;;;;;;5095054;28;20537;-77
2023/01/25 02:01:34;;;;;;;0.50;0.50;;;6.00;99.90;;;;;;5093739;28;20744;-81
2023/01/25 02:04:02;;;;;;;0.55;0.55;;;6.00;99.90;;;;;;5096905;22;20325;-74
2023/01/25 02:07:04;;;;;;;0.60;0.60;;;6.00;99.90;;;;;;5093433;28;20741;-73
2023/01/25 02:09:32;;;;;;;0.60;0.60;;;6.00;99.90;;;;;;5059793;28;20207;-73
2023/01/25 02:11:59;;;;;;;0.60;0.60;;;6.10;99.90;;;;;;5094595;28;20196;-73
2023/01/25 02:14:27;;;;;;;0.57;0.57;;;6.00;99.90;;;;;;5093132;28;20227;-73
2023/01/25 02:16:54;;;;;;;0.47;0.47;;;6.00;99.90;;;;;;5092943;28;20216;-73
2023/01/25 02:19:47;;;;;;;0.43;0.43;;;6.00;99.90;;;;;;5093091;28;20624;-73
2023/01/25 02:22:21;;;;;;;0.88;0.88;;;6.10;99.90;;;;;;5094449;28;20190;-73
2023/01/25 02:25:20;;;;;;;0.55;0.55;;;6.10;99.90;;;;;;5094318;28;20234;-74
2023/01/25 02:27:53;;;;;;;0.50;0.50;;;6.10;99.90;;;;;;5089371;28;20212;-73
2023/01/25 02:30:19;;;;;;;0.50;0.50;;;6.10;99.90;;;;;;5094183;28;20207;-73
2023/01/25 02:32:45;;;;;;;0.68;0.68;;;6.00;99.90;;;;;;5092924;28;20200;-73
2023/01/25 02:35:18;;;;;;;0.60;0.60;;;6.00;99.90;;;;;;5094196;28;20245;-74
2023/01/25 02:37:45;;;;;;;0.60;0.60;;;6.00;99.90;;;;;;5092696;28;20200;-73
2023/01/25 02:40:11;;;;;;;0.50;0.50;;;6.00;99.90;;;;;;5094008;28;20196;-74
2023/01/25 02:42:40;;;;;;;0.70;0.70;;;6.10;99.90;;;;;;5093874;28;20531;-73
2023/01/25 02:45:10;;;;;;;0.60;0.60;;;6.10;99.90;;;;;;5092674;28;20610;-73
2023/01/25 02:47:35;;;;;;;0.50;0.50;;;6.10;99.90;;;;;;5093883;28;20287;-73
2023/01/25 02:50:02;;;;;;;1.33;0.80;;;6.10;99.90;;;;;;5093961;28;20263;-74
2023/01/25 02:52:28;;;;;;;0.60;0.60;;;6.00;99.90;;;;;;5093669;28;20200;-73
2023/01/25 02:54:53;;;;;;;1.45;1.30;;;6.00;99.90;;;;;;5093790;28;20335;-73
2023/01/25 02:57:19;;;;;;;0.50;0.50;;;6.10;99.90;;;;;;5092143;28;20212;-74
2023/01/25 02:59:45;;;;;;;0.60;0.60;;;6.10;99.90;;;;;;5093722;28;20192;-73
2023/01/25 03:02:10;;;;;;;0.65;0.65;;;6.00;99.90;;;;;;5092930;28;20188;-73
2023/01/25 03:04:36;;;;;;;0.60;0.60;;;6.10;99.90;;;;;;5091650;28;20235;-72
2023/01/25 03:07:03;;;;;;;0.70;0.70;;;6.10;99.90;;;;;;5093478;28;20287;-73
2023/01/25 03:09:28;;;;;;;0.50;0.50;;;6.10;99.90;;;;;;5092059;28;20204;-72
2023/01/25 03:11:54;;;;;;;0.60;0.60;;;6.00;99.90;;;;;;5093547;28;20203;-73
2023/01/25 03:14:20;;;;;;;0.57;0.57;;;6.00;99.90;;;;;;5091951;28;20207;-73
2023/01/25 03:16:45;;;;;;;0.60;0.60;;;6.10;99.90;;;;;;5092927;28;20719;-73
2023/01/25 03:19:11;;;;;;;0.60;0.60;;;6.00;99.90;;;;;;5093258;28;20192;-73
2023/01/25 03:21:39;;;;;;;0.50;0.50;;;6.00;99.90;;;;;;5073456;28;20697;-75
2023/01/25 03:24:05;;;;;;;0.50;0.50;;;6.00;99.90;;;;;;5073017;28;20181;-77
2023/01/25 03:27:09;;;;;;;0.60;0.60;;;6.10;99.90;;;;;;5072645;28;20659;-73
2023/01/25 03:29:17;;;;;;;0.63;0.63;;;6.10;99.90;;;;;;5072763;28;20215;-73
2023/01/25 03:31:42;;;;;;;0.70;0.70;;;6.10;99.90;;;;;;5071650;28;20197;-76
2023/01/25 03:34:08;;;;;;;0.60;0.60;;;6.10;99.90;;;;;;5093254;28;20188;-77
2023/01/25 03:36:34;;;;;;;0.73;0.73;;;6.10;99.90;;;;;;5092683;28;20207;-73
2023/01/25 03:38:59;;;;;;;0.50;0.50;;;6.10;99.90;;;;;;5093070;28;20228;-73
2023/01/25 03:41:25;;;;;;;0.65;0.65;;;6.10;99.90;;;;;;5092754;28;20204;-73
2023/01/25 03:43:51;;;;;;;0.52;0.52;;;6.10;99.90;;;;;;5092956;28;20192;-72
2023/01/25 03:46:17;;;;;;;0.77;0.77;;;6.10;99.90;;;;;;5093061;28;20249;-73
2023/01/25 03:48:42;;;;;;;0.65;0.65;;;6.10;99.90;;;;;;5092868;28;20196;-73
2023/01/25 03:51:08;;;;;;;0.50;0.50;;;6.00;99.90;;;;;;5093006;28;20265;-73
2023/01/25 03:53:34;;;;;;;0.50;0.50;;;6.00;99.90;;;;;;5091397;28;20200;-73
2023/01/25 03:56:03;;;;;;;0.55;0.55;;;6.00;99.90;;;;;;5092663;28;20287;-74
2023/01/25 03:58:30;;;;;;;0.55;0.55;;;6.00;99.90;;;;;;5092592;28;20191;-73
2023/01/25 04:00:57;;;;;;;0.60;0.60;;;6.00;99.90;;;;;;5091388;28;20199;-73
2023/01/25 04:03:24;;;;;;;0.70;0.70;;;6.00;99.90;;;;;;5086500;28;20205;-73
2023/01/25 04:05:50;;;;;;;0.70;0.70;;;6.00;99.90;;;;;;5071275;28;20616;-73
2023/01/25 04:08:16;;;;;;;0.50;0.50;;;6.00;99.90;;;;;;5072594;28;20673;-73
2023/01/25 04:10:42;;;;;;;0.60;0.60;;;6.00;99.90;;;;;;5072298;28;20227;-73
2023/01/25 04:13:08;;;;;;;0.60;0.60;;;6.00;99.90;;;;;;5071263;28;20196;-73
2023/01/25 04:15:34;;;;;;;0.50;0.50;;;6.00;99.90;;;;;;5072299;28;20769;-73
2023/01/25 04:18:00;;;;;;;0.60;0.60;;;6.00;99.90;;;;;;5083965;28;20283;-72
2023/01/25 04:20:26;;;;;;;0.60;0.60;;;6.00;99.90;;;;;;5092500;28;20195;-73
2023/01/25 04:22:52;;;;;;;0.85;0.85;;;5.90;99.90;;;;;;5092343;28;20563;-73
2023/01/25 04:25:17;;;;;;;0.70;0.70;;;5.90;99.90;;;;;;5091326;28;20361;-72
2023/01/25 04:27:43;;;;;;;0.60;0.60;;;5.90;99.90;;;;;;5092514;28;20594;-73
2023/01/25 04:30:09;;;;;;;0.65;0.65;;;5.90;99.90;;;;;;5094400;28;20680;-72
2023/01/25 04:32:35;;;;;;;0.70;0.70;;;5.90;99.90;;;;;;5096422;28;20656;-73
2023/01/25 04:35:01;;;;;;;1.17;1.10;;;5.90;99.90;;;;;;5096600;28;20609;-73
2023/01/25 04:37:27;;;;;;;0.60;0.60;;;5.90;99.90;;;;;;5096230;28;20208;-73
2023/01/25 04:39:53;;;;;;;0.45;0.45;;;5.90;99.90;;;;;;5094994;28;20269;-74
2023/01/25 04:42:18;;;;;;;0.60;0.60;;;5.90;99.90;;;;;;5096247;28;20200;-74
2023/01/25 04:44:44;;;;;;;0.68;0.68;;;6.00;99.90;;;;;;5094911;28;20192;-73
2023/01/25 04:47:10;;;;;;;0.70;0.70;;;6.00;99.90;;;;;;5094902;28;20196;-73
2023/01/25 04:49:35;;;;;;;0.50;0.50;;;6.00;99.90;;;;;;5096028;28;20643;-73
2023/01/25 04:52:01;;;;;;;0.70;0.70;;;6.00;99.90;;;;;;5094779;28;20204;-73
2023/01/25 04:54:27;;;;;;;0.60;0.60;;;6.00;99.90;;;;;;5095883;28;20207;-74
2023/01/25 04:56:52;;;;;;;0.70;0.70;;;6.00;99.90;;;;;;5096050;28;20200;-73
2023/01/25 04:59:18;;;;;;;0.60;0.60;;;6.00;99.90;;;;;;5095956;28;20191;-74
2023/01/25 05:01:44;;;;;;;0.82;0.82;;;5.90;99.90;;;;;;5095781;28;20199;-72
2023/01/25 05:04:10;;;;;;;0.60;0.60;;;6.00;99.90;;;;;;5094325;28;20255;-72
2023/01/25 05:06:35;;;;;;;0.70;0.70;;;6.00;99.90;;;;;;5095701;28;20192;-73
2023/01/25 05:09:01;;;;;;;0.60;0.60;;;6.00;99.90;;;;;;5095999;28;20275;-73
2023/01/25 05:11:27;;;;;;;0.70;0.70;;;6.10;99.90;;;;;;5095660;28;20318;-73
2023/01/25 05:13:53;;;;;;;0.60;0.60;;;6.00;99.90;;;;;;5095883;28;20246;-74
2023/01/25 05:16:19;;;;;;;0.60;0.60;;;6.10;99.90;;;;;;5094235;28;20261;-74
2023/01/25 05:18:45;;;;;;;0.70;0.70;;;6.10;99.90;;;;;;5095507;28;20658;-73
2023/01/25 05:21:56;;;;;;;0.60;0.60;;;6.10;99.90;;;;;;5094626;28;20195;-72
2023/01/25 05:23:56;;;;;;;0.63;0.63;;;6.20;99.90;;;;;;5095557;28;20596;-73
2023/01/25 05:29:08;;;;;;;0.50;0.50;;;6.20;99.90;;;;;;5095674;28;20191;-72
2023/01/25 05:31:34;;;;;;;0.60;0.60;;;6.10;99.90;;;;;;5095273;28;20188;-72
2023/01/25 05:34:00;;;;;;;0.60;0.60;;;6.10;99.90;;;;;;5095442;28;20214;-73
2023/01/25 05:36:25;;;;;;;0.50;0.50;;;6.10;99.90;;;;;;5093601;28;20692;-74
2023/01/25 05:38:51;;;;;;;0.60;0.60;;;6.10;99.90;;;;;;5095400;28;20245;-73
2023/01/25 05:41:17;;;;;;;0.65;0.65;;;6.20;99.90;;;;;;5092644;28;20653;-73
2023/01/25 05:43:46;;;;;;;0.60;0.60;;;6.20;99.90;;;;;;5093543;28;20202;-72
2023/01/25 06:27:24;;;;;;;0.60;0.60;;;6.30;99.90;;;;;;5094112;28;20299;-73
2023/01/25 06:29:50;;;;;;;0.70;0.70;;;6.40;99.90;;;;;;5094453;28;20286;-72
2023/01/25 06:32:15;;;;;;;0.70;0.70;;;6.40;99.90;;;;;;5092851;28;20196;-73
2023/01/25 06:34:41;;;;;;;0.70;0.70;;;6.40;99.90;;;;;;5094036;28;20286;-73
2023/01/25 06:37:07;;;;;;;0.50;0.50;;;6.40;99.90;;;;;;5094080;28;20204;-72
2023/01/25 06:39:32;;;;;;;0.70;0.70;;;6.30;99.90;;;;;;5093915;28;20604;-72
2023/01/25 06:41:58;;;;;;;0.60;0.60;;;6.40;99.90;;;;;;5092810;28;20199;-73
2023/01/25 06:44:24;;;;;;;0.60;0.60;;;6.40;99.90;;;;;;5093726;28;20646;-73
2023/01/25 06:46:49;;;;;;;0.50;0.50;;;6.30;99.90;;;;;;5092092;28;20219;-73
2023/01/25 06:49:15;;;;;;;0.70;0.70;;;6.30;99.90;;;;;;5093865;28;20192;-73
2023/01/25 06:51:41;;;;;;;0.75;0.75;;;6.30;99.90;;;;;;5093126;28;20666;-73
2023/01/25 06:54:06;;;;;;;0.60;0.60;;;6.30;99.90;;;;;;5093885;28;20276;-73
2023/01/25 06:56:32;;;;;;;0.40;0.40;;;6.40;99.90;;;;;;5093412;28;20201;-73
2023/01/25 06:58:58;;;;;;;0.55;0.55;;;6.40;99.90;;;;;;5093811;28;20249;-73
2023/01/25 07:01:29;;;;;;;0.70;0.70;;;6.40;99.90;;;;;;5093466;28;20210;-72
2023/01/25 07:03:56;;;;;;;0.50;0.50;;;6.30;99.90;;;;;;5093327;28;20235;-74
2023/01/25 07:06:23;;;;;;;0.60;0.60;;;6.30;99.90;;;;;;5093390;28;20679;-72
2023/01/25 07:08:50;;;;;;;0.90;0.90;;;6.30;99.90;;;;;;5092221;28;20196;-71
2023/01/25 07:11:17;;;;;;;0.60;0.60;;;6.30;99.90;;;;;;5092166;28;20204;-71
2023/01/25 07:13:45;;;;;;;0.68;0.68;;;6.30;99.90;;;;;;5093691;28;20214;-72
2023/01/25 07:16:18;;;;;;;0.55;0.55;;;6.30;99.90;;;;;;5093241;28;20265;-74
2023/01/25 07:18:44;;;;;;;0.70;0.70;;;6.30;99.90;;;;;;5093184;28;20185;-73
2023/01/25 07:21:16;;;;;;;0.98;0.98;;;6.30;99.90;;;;;;5092557;28;20623;-73
2023/01/25 07:23:42;;;;;;;0.70;0.70;;;6.30;99.90;;;;;;5075696;28;20193;-72
2023/01/25 07:26:16;;;;;;;0.57;0.57;;;6.30;99.90;;;;;;5072949;28;20197;-72
2023/01/25 07:28:42;;;;;;;0.70;0.70;;;6.20;99.90;;;;;;5079340;28;20199;-72
2023/01/25 07:31:08;;;;;;;0.68;0.68;;;6.30;99.90;;;;;;5091905;28;20224;-73
2023/01/25 07:33:34;;;;;;;0.60;0.60;;;6.30;99.90;;;;;;5092845;28;20642;-73
2023/01/25 07:36:04;;;;;;;0.60;0.60;;;6.30;99.90;;;;;;5092965;28;20208;-73
2023/01/25 07:38:30;;;;;;;0.65;0.65;;;6.30;99.90;;;;;;5091479;28;20196;-73
2023/01/25 07:40:56;;;;;;;0.70;0.70;;;6.20;99.90;;;;;;5091633;28;20211;-73
2023/01/25 07:43:22;;;;;;;0.47;0.47;;;6.20;99.90;;;;;;5091460;28;20192;-73
2023/01/25 07:45:48;;;;;;;0.70;0.70;;;6.20;99.90;;;;;;5093071;28;20639;-73
2023/01/25 07:48:15;;;;;;;0.93;0.93;;;6.20;99.90;;;;;;5092730;28;20291;-72
2023/01/25 07:50:41;;;;;;;0.65;0.65;;;6.20;99.90;;;;;;5092591;28;20270;-72
2023/01/25 07:53:07;;;;;;;0.50;0.50;;;6.20;99.90;;;;;;5092869;28;20556;-73
2023/01/25 07:55:33;;;;;;;0.70;0.70;;;6.20;99.90;;;;;;5092542;28;20267;-72
2023/01/25 07:57:59;;;;;;;1.50;1.10;;;6.20;99.90;;;;;;5092733;28;20192;-72
2023/01/25 08:00:25;;;;;;;0.55;0.55;;;6.20;99.90;;;;;;5091284;28;20188;-72
2023/01/25 08:02:52;;;;;;;0.60;0.60;;;6.20;99.90;;;;;;5090867;28;20211;-72
2023/01/25 08:05:18;;;;;;;0.60;0.60;;;6.20;99.90;;;;;;5092349;28;20256;-73
2023/01/25 08:07:45;;;;;;;0.70;0.70;;;6.30;99.90;;;;;;5091398;28;20200;-72
2023/01/25 08:10:11;;;;;;;0.65;0.65;;;6.30;99.90;;;;;;5092689;28;20188;-73
2023/01/25 08:12:37;;;;;;;0.60;0.60;;;6.30;99.90;;;;;;5091195;28;20204;-72
2023/01/25 08:15:03;;;;;;;0.70;0.70;;;6.30;99.90;;;;;;5092642;28;20241;-71
2023/01/25 08:17:32;;;;;;;0.70;0.70;;;6.30;99.90;;;;;;5092201;28;20204;-71
2023/01/25 08:20:00;;;;;;;0.70;0.70;;;6.30;99.90;;;;;;5092631;28;20685;-72
2023/01/25 08:22:27;;;;;;;0.60;0.60;;;6.20;99.90;;;;;;5092487;28;20180;-73
2023/01/25 08:24:53;;;;;;;0.60;0.60;;;6.20;99.90;;;;;;5091201;28;20200;-72
2023/01/25 08:27:19;;;;;;;0.60;0.60;;;6.20;99.90;;;;;;5092567;28;20203;-72
2023/01/25 08:29:46;;;;;;;0.60;0.60;;;6.20;99.90;;;;;;5092906;28;20246;-73
2023/01/25 08:32:12;;;;;;;0.70;0.70;;;6.30;99.90;;;;;;5092461;28;20219;-72
2023/01/25 08:34:38;;;;;;;0.70;0.70;;;6.30;99.90;;;;;;5092202;28;20201;-72
2023/01/25 08:37:05;;;;;;;0.70;0.70;;;6.30;99.90;;;;;;5090979;28;20261;-72
2023/01/25 08:39:31;;;;;;;0.60;0.60;;;6.30;99.90;;;;;;5092138;28;20242;-73
2023/01/25 08:41:56;;;;;;;0.50;0.50;;;6.30;99.90;;;;;;5092310;28;20188;-73
2023/01/25 08:44:24;;;;;;;0.60;0.60;;;6.20;99.90;;;;;;5091969;28;20227;-73
2023/01/25 08:46:50;;;;;;;0.50;0.50;;;6.20;99.90;;;;;;5092274;28;20196;-72
2023/01/25 08:49:16;;;;;;;0.55;0.55;;;6.20;99.90;;;;;;5092243;28;20581;-73
2023/01/25 08:51:43;;;;;;;0.55;0.55;;;6.20;99.90;;;;;;5092239;28;20219;-72
2023/01/25 08:54:11;;;;;;;0.70;0.70;;;6.30;99.90;;;;;;5092294;28;20192;-72
2023/01/25 08:56:39;;;;;;;0.68;0.68;;;6.30;99.90;;;;;;5092028;28;20285;-72
2023/01/25 08:59:05;;;;;;;0.68;0.68;;;6.30;99.90;;;;;;5092316;28;20558;-72
2023/01/25 09:01:30;;;;;;;0.60;0.60;;;6.30;99.90;;;;;;5091953;28;20192;-72
2023/01/25 09:03:56;;;;;;;0.57;0.57;;;6.30;99.90;;;;;;5097080;28;20224;-72
2023/01/25 09:06:22;;;;;;;0.60;0.60;;;6.30;99.90;;;;;;5112254;28;20704;-73
2023/01/25 09:08:48;;;;;;;0.65;0.65;;;6.30;99.90;;;;;;5094253;28;20251;-72
2023/01/25 09:11:20;;;;;;;0.70;0.70;;;6.30;99.90;;;;;;5095057;28;20250;-73
2023/01/25 09:13:47;;;;;;;0.70;0.70;;;6.40;99.90;;;;;;5092199;28;20199;-73
2023/01/25 09:16:25;;;;;;;0.60;0.60;;;6.40;99.90;;;;;;5093861;28;20262;-72
2023/01/25 09:18:51;;;;;;;0.60;0.60;;;6.40;99.90;;;;;;5095424;28;20593;-71
2023/01/25 09:21:18;;;;;;;0.68;0.68;;;6.40;99.90;;;;;;5095492;28;20273;-72
2023/01/25 09:23:47;;;;;;;0.70;0.70;;;6.40;99.90;;;;;;5095520;28;20188;-72
2023/01/25 09:26:14;;;;;;;0.60;0.60;;;6.50;99.90;;;;;;5077357;28;20647;-71
2023/01/25 09:28:41;;;;;;;0.60;0.60;;;6.50;99.90;;;;;;5090305;28;20201;-72
2023/01/25 09:31:07;;;;;;;0.60;0.60;;;6.50;99.90;;;;;;5075299;28;20189;-72
2023/01/25 09:33:35;;;;;;;0.60;0.60;;;6.60;99.90;;;;;;5074921;28;20242;-73
2023/01/25 09:36:01;;;;;;;0.60;0.60;;;6.50;99.90;;;;;;5075092;28;20651;-71
2023/01/25 09:38:27;;;;;;;2.05;0.98;;;6.50;99.90;;;;;;5074833;28;20276;-72
2023/01/25 09:41:02;;;;;;;0.70;0.70;;;6.50;99.90;;;;;;5064857;28;20284;-71
2023/01/25 09:43:55;;;;;;;0.70;0.70;;;6.50;99.90;;;;;;5095036;28;20191;-71
2023/01/25 09:46:24;;;;;;;0.50;0.50;;;6.50;99.90;;;;;;5076829;28;20207;-72
2023/01/25 09:49:06;;;;;;;0.50;0.50;;;6.50;99.90;;;;;;5095035;28;20195;-71
2023/01/25 09:51:59;;;;;;;0.60;0.60;;;6.50;99.90;;;;;;5076735;28;20607;-72
2023/01/25 09:54:27;;;;;;;0.60;0.60;;;6.50;99.90;;;;;;5094785;28;20233;-73
2023/01/25 09:56:53;;;;;;;0.60;0.60;;;6.60;99.90;;;;;;5094909;28;20295;-72
2023/01/25 09:59:25;;;;;;;0.60;0.60;;;6.50;99.90;;;;;;5094817;28;20200;-73
2023/01/25 10:01:54;;;;;;;0.60;0.60;;;6.50;99.90;;;;;;5094745;28;20598;-71
2023/01/25 10:04:33;;;;;;;0.70;0.70;;;6.50;99.90;;;;;;5094228;28;20313;-73
2023/01/25 10:07:17;;;;;;;0.60;0.60;;;6.50;99.90;;;;;;5063635;28;20208;-72
2023/01/25 10:10:05;;;;;;;0.68;0.68;;;6.50;99.90;;;;;;5056340;28;20201;-72
2023/01/25 10:12:37;;;;;;;0.68;0.68;;;6.50;99.90;;;;;;5056277;28;20302;-73
2023/01/25 10:15:21;;;;;;;0.60;0.60;;;6.50;99.90;;;;;;5074343;28;20240;-72
2023/01/25 10:17:58;;;;;;;0.60;0.60;;;6.50;99.90;;;;;;5055954;28;20216;-72
2023/01/25 10:20:43;;;;;;;0.68;0.68;;;6.50;99.90;;;;;;5056124;28;20200;-72
2023/01/25 10:23:20;;;;;;;0.80;0.80;;;6.50;99.90;;;;;;5074246;28;20532;-72
2023/01/25 10:26:02;;;;;;;0.70;0.70;;;6.50;99.90;;;;;;5073881;28;20192;-72
2023/01/25 10:28:44;;;;;;;0.60;0.60;;;6.50;99.90;;;;;;5073657;28;20193;-72
2023/01/25 10:31:27;;;;;;;0.70;0.70;;;6.50;99.90;;;;;;5074073;28;20232;-72
2023/01/25 10:33:54;;;;;;;0.60;0.60;;;6.50;99.90;;;;;;5074017;28;20277;-73
2023/01/25 10:36:29;;;;;;;0.70;0.70;;;6.40;99.90;;;;;;5055505;28;20296;-75
2023/01/25 10:38:59;;;;;;;0.60;0.60;;;6.40;99.90;;;;;;5073870;28;20199;-75
2023/01/25 10:41:41;;;;;;;0.68;0.68;;;6.40;99.90;;;;;;5073675;28;20200;-75
2023/01/25 10:44:27;;;;;;;0.68;0.68;;;6.40;99.90;;;;;;5055754;28;20243;-75
2023/01/25 10:47:17;;;;;;;0.60;0.60;;;6.40;99.90;;;;;;5073805;28;20197;-75
2023/01/25 10:49:47;;;;;;;0.60;0.60;;;6.40;99.90;;;;;;5073549;28;20238;-75
2023/01/25 10:52:30;;;;;;;0.70;0.70;;;6.40;99.90;;;;;;5055640;28;20196;-75
2023/01/25 10:55:19;;;;;;;0.70;0.70;;;6.50;99.90;;;;;;5055674;28;20570;-75
2023/01/25 10:57:50;;;;;;;0.60;0.60;;;6.50;99.90;;;;;;5035505;28;20244;-75
2023/01/25 11:00:30;;;;;;;0.60;0.60;;;6.40;99.90;;;;;;5035916;28;20204;-75
2023/01/25 11:02:56;;;;;;;0.68;0.68;;;6.50;99.90;;;;;;5063294;28;20193;-75
2023/01/25 11:05:31;;;;;;;0.60;0.60;;;6.50;99.90;;;;;;5089948;28;20581;-74
2023/01/25 11:07:58;;;;;;;0.70;0.70;;;6.50;99.90;;;;;;5093698;28;20207;-75
2023/01/25 11:10:35;;;;;;;0.70;0.70;;;6.40;99.90;;;;;;5092113;28;20543;-75
2023/01/25 11:13:19;;;;;;;0.68;0.68;;;6.50;99.90;;;;;;5093438;28;20187;-74
2023/01/25 11:15:46;;;;;;;0.60;0.60;;;6.50;99.90;;;;;;5093457;28;20198;-75
2023/01/25 11:18:24;;;;;;;0.60;0.60;;;6.50;99.90;;;;;;5093294;28;20188;-75
2023/01/25 11:21:11;;;;;;;0.63;0.63;;;6.50;99.90;;;;;;5093237;28;20642;-75
2023/01/25 11:23:37;;;;;;;0.70;0.70;;;6.50;99.90;;;;;;5091909;28;20199;-75
2023/01/25 11:26:16;;;;;;;0.70;0.70;;;6.50;99.90;;;;;;5093152;28;20204;-76
2023/01/25 11:28:43;;;;;;;0.68;0.68;;;6.60;99.90;;;;;;5093142;28;20192;-75
2023/01/25 11:31:13;;;;;;;0.43;0.43;;;6.60;99.90;;;;;;5093288;28;20216;-75
2023/01/25 11:33:40;;;;;;;0.70;0.70;;;6.60;99.90;;;;;;5092880;28;20272;-75
2023/01/25 11:36:09;;;;;;;0.70;0.70;;;6.60;99.90;;;;;;5091782;28;20200;-75
2023/01/25 11:38:36;;;;;;;1.00;1.00;;;6.60;99.90;;;;;;5093097;28;20192;-75
2023/01/25 11:41:33;;;;;;;0.70;0.70;;;6.50;99.90;;;;;;5093096;28;20233;-75
2023/01/25 11:44:12;;;;;;;0.60;0.60;;;6.50;99.90;;;;;;5093067;28;20631;-75
2023/01/25 11:47:12;;;;;;;0.70;0.70;;;6.50;99.90;;;;;;5091551;28;20203;-75
2023/01/25 11:50:15;;;;;;;0.70;0.70;;;6.50;99.90;;;;;;5092713;28;20180;-75
2023/01/25 11:52:47;;;;;;;4.97;1.77;;;6.50;99.90;;;;;;5091874;28;20191;-75
2023/01/25 11:55:30;;;;;;;0.80;0.80;;;6.50;99.90;;;;;;5091512;28;20200;-75
2023/01/25 11:58:15;;;;;;;0.63;0.63;;;6.50;99.90;;;;;;5091578;28;20215;-75
2023/01/25 12:01:06;;;;;;;0.70;0.70;;;6.50;99.90;;;;;;5087896;28;20691;-75
2023/01/25 12:03:46;;;;;;;0.63;0.63;;;6.50;99.90;;;;;;5070735;28;20201;-75
2023/01/25 12:06:33;;;;;;;0.70;0.70;;;6.50;99.90;;;;;;5072501;28;20239;-75
2023/01/25 12:09:29;;;;;;;0.60;0.60;;;6.50;99.90;;;;;;5071315;28;20220;-75
2023/01/25 12:12:10;;;;;;;0.60;0.60;;;6.60;99.90;;;;;;5088024;28;20334;-75
2023/01/25 12:15:07;;;;;;;0.60;0.60;;;6.60;99.90;;;;;;5072226;28;20192;-75
2023/01/25 12:17:55;;;;;;;0.60;0.60;;;6.60;99.90;;;;;;5077361;28;20214;-75
2023/01/25 12:20:37;;;;;;;0.70;0.70;;;6.60;99.90;;;;;;5091096;28;20204;-75
2023/01/25 12:23:20;;;;;;;0.60;0.60;;;6.60;99.90;;;;;;5072335;28;20287;-75
2023/01/25 12:26:01;;;;;;;0.60;0.60;;;6.60;99.90;;;;;;5071141;28;20610;-76
2023/01/25 12:28:50;;;;;;;0.55;0.55;;;6.60;99.90;;;;;;5072210;28;20184;-77
2023/01/25 12:31:36;;;;;;;0.70;0.70;;;6.60;99.90;;;;;;5072186;28;20643;-76
2023/01/25 12:34:23;;;;;;;0.57;0.57;;;6.60;99.90;;;;;;5067230;28;20659;-77
2023/01/25 12:36:50;;;;;;;0.50;0.50;;;6.60;99.90;;;;;;5072160;28;20655;-77
2023/01/25 12:39:29;;;;;;;0.60;0.60;;;6.60;99.90;;;;;;5070983;28;20279;-77
2023/01/25 12:42:14;;;;;;;0.60;0.60;;;6.70;99.90;;;;;;5072246;28;20185;-74
2023/01/25 12:45:13;;;;;;;0.70;0.70;;;6.70;99.90;;;;;;5070689;28;20319;-74
2023/01/25 12:47:45;;;;;;;0.70;0.70;;;6.70;99.90;;;;;;5072411;28;20209;-74
2023/01/25 12:50:37;;;;;;;0.60;0.60;;;6.70;99.90;;;;;;5093901;28;20321;-74
2023/01/25 12:53:16;;;;;;;1.30;1.13;;;6.70;99.90;;;;;;5094959;28;20199;-75
2023/01/25 12:55:43;;;;;;;0.60;0.60;;;6.70;99.90;;;;;;5095718;28;20204;-75
2023/01/25 12:58:25;;;;;;;0.70;0.70;;;6.80;99.90;;;;;;5096220;28;20646;-74
2023/01/25 13:01:24;;;;;;;0.60;0.60;;;6.80;99.90;;;;;;5095959;28;20180;-74
2023/01/25 13:04:08;;;;;;;0.55;0.55;;;6.70;99.90;;;;;;5095911;28;20690;-74
2023/01/25 13:06:40;;;;;;;0.60;0.60;;;6.70;99.90;;;;;;5095476;28;20738;-74
2023/01/25 13:09:20;;;;;;;0.50;0.50;;;6.70;99.90;;;;;;5095903;28;20291;-75
2023/01/25 13:11:47;;;;;;;0.70;0.70;;;6.70;99.90;;;;;;5095873;28;20206;-74
2023/01/25 13:14:16;;;;;;;0.60;0.60;;;6.70;99.90;;;;;;5094540;28;20273;-74
2023/01/25 13:16:53;;;;;;;0.55;0.55;;;6.70;99.90;;;;;;5093996;28;20258;-74
2023/01/25 13:19:28;;;;;;;0.60;0.60;;;6.70;99.90;;;;;;5091090;28;20235;-74
2023/01/25 13:21:58;;;;;;;0.60;0.60;;;6.70;99.90;;;;;;5074028;28;20253;-74
2023/01/25 13:24:31;;;;;;;0.60;0.60;;;6.60;99.90;;;;;;5075224;28;20193;-74
2023/01/25 13:27:21;;;;;;;0.60;0.60;;;6.60;99.90;;;;;;5090760;28;20562;-74
2023/01/25 13:29:54;;;;;;;0.63;0.63;;;6.60;99.90;;;;;;5093938;28;20295;-74
2023/01/25 13:32:23;;;;;;;0.70;0.70;;;6.70;99.90;;;;;;5095299;28;20184;-74
2023/01/25 13:34:49;;;;;;;0.70;0.70;;;6.60;99.90;;;;;;5095341;28;20654;-74
2023/01/25 13:37:22;;;;;;;0.70;0.70;;;6.60;99.90;;;;;;5095173;28;20257;-74
2023/01/25 13:39:49;;;;;;;0.60;0.60;;;6.60;99.90;;;;;;5095292;28;20559;-74
2023/01/25 13:42:29;;;;;;;0.68;0.68;;;6.60;99.90;;;;;;5095161;28;20527;-74
2023/01/25 13:45:19;;;;;;;0.50;0.50;;;6.50;99.90;;;;;;5094921;28;20276;-74
2023/01/25 13:48:18;;;;;;;0.70;0.70;;;6.50;99.90;;;;;;5095422;28;20269;-74
2023/01/25 13:51:08;;;;;;;0.80;0.80;;;6.50;99.90;;;;;;5094803;28;20245;-74
2023/01/25 13:53:38;;;;;;;0.60;0.60;;;6.50;99.90;;;;;;5094816;28;20218;-74
2023/01/25 13:56:04;;;;;;;0.68;0.68;;;6.50;99.90;;;;;;5094927;28;20200;-74
2023/01/25 13:58:36;;;;;;;0.73;0.73;;;6.50;99.90;;;;;;5093399;28;20192;-74
2023/01/25 14:01:05;;;;;;;0.60;0.60;;;6.50;99.90;;;;;;5093838;28;20192;-74